createdAt,value
2023-05-14T00:01:44.605Z,53.11
2023-05-14T00:04:12.583Z,53.00
2023-05-14T00:06:41.963Z,53.51
2023-05-14T00:09:09.864Z,53.11
2023-05-14T00:11:37.848Z,53.16
2023-05-14T00:14:06.023Z,53.17
2023-05-14T00:16:33.954Z,53.52
2023-05-14T00:19:01.991Z,53.36
2023-05-14T00:21:29.826Z,53.98
2023-05-14T00:23:59.089Z,54.13
2023-05-14T00:26:27.093Z,54.17
2023-05-14T00:28:54.941Z,54.71
2023-05-14T00:31:22.758Z,54.50
2023-05-14T00:33:50.771Z,54.96
2023-05-14T00:36:18.600Z,55.08
2023-05-14T00:38:46.444Z,55.05
2023-05-14T00:41:15.875Z,55.23
2023-05-14T00:43:43.734Z,55.63
2023-05-14T00:46:12.515Z,55.63
2023-05-14T00:48:40.495Z,55.78
2023-05-14T00:51:09.603Z,56.10
2023-05-14T00:53:37.979Z,56.31
2023-05-14T00:56:07.058Z,56.32
2023-05-14T00:58:36.282Z,56.52
2023-05-14T01:01:04.325Z,56.65
2023-05-14T01:03:35.596Z,56.74
2023-05-14T01:06:11.128Z,57.10
2023-05-14T01:08:50.963Z,57.24
2023-05-14T01:11:21.544Z,57.46
2023-05-14T01:14:00.459Z,57.69
2023-05-14T01:16:30.514Z,57.67
2023-05-14T01:19:01.115Z,58.03
2023-05-14T01:21:40.490Z,58.75
2023-05-14T01:24:09.285Z,58.38
2023-05-14T01:26:37.646Z,58.79
2023-05-14T01:29:14.969Z,59.35
2023-05-14T01:31:45.379Z,59.47
2023-05-14T01:34:15.383Z,59.71
2023-05-14T01:36:45.436Z,60.45
2023-05-14T01:39:15.254Z,60.49
2023-05-14T01:41:43.785Z,60.88
2023-05-14T01:44:12.249Z,61.43
2023-05-14T01:46:40.269Z,61.71
2023-05-14T01:49:08.209Z,62.14
2023-05-14T01:51:36.168Z,62.16
2023-05-14T01:54:05.651Z,62.58
2023-05-14T01:56:33.849Z,62.33
2023-05-14T01:59:03.162Z,62.35
2023-05-14T02:01:31.753Z,62.35
2023-05-14T02:04:00.110Z,62.59
2023-05-14T02:06:28.360Z,62.77
2023-05-14T02:08:56.186Z,62.78
2023-05-14T02:11:26.356Z,62.83
2023-05-14T02:13:54.188Z,62.75
2023-05-14T02:16:22.070Z,62.83
2023-05-14T02:18:50.065Z,62.97
2023-05-14T02:21:17.944Z,63.25
2023-05-14T02:23:45.791Z,63.25
2023-05-14T02:26:13.698Z,63.45
2023-05-14T02:28:42.922Z,63.63
2023-05-14T02:31:10.790Z,63.70
2023-05-14T02:33:38.941Z,63.85
2023-05-14T02:36:07.180Z,64.13
2023-05-14T02:38:35.016Z,64.13
2023-05-14T02:41:02.975Z,64.30
2023-05-14T02:43:30.816Z,64.54
2023-05-14T02:46:00.034Z,64.81
2023-05-14T02:48:28.035Z,64.83
2023-05-14T02:50:55.877Z,64.84
2023-05-14T02:53:23.728Z,64.78
2023-05-14T02:55:51.968Z,64.50
2023-05-14T02:58:19.813Z,64.61
2023-05-14T03:00:54.208Z,64.85
2023-05-14T03:03:23.915Z,65.15
2023-05-14T03:05:52.154Z,65.24
2023-05-14T03:08:20.092Z,65.38
2023-05-14T03:10:47.909Z,65.37
2023-05-14T03:13:20.844Z,65.56
2023-05-14T03:15:48.995Z,65.76
2023-05-14T03:18:16.867Z,65.65
2023-05-14T03:20:46.102Z,65.64
2023-05-14T03:23:14.956Z,65.98
2023-05-14T03:25:42.820Z,66.49
2023-05-14T03:28:13.070Z,66.92
2023-05-14T03:30:41.027Z,67.12
2023-05-14T03:33:08.925Z,67.46
2023-05-14T03:35:36.765Z,68.09
2023-05-14T03:38:06.155Z,68.59
2023-05-14T03:40:34.015Z,68.64
2023-05-14T03:43:01.845Z,68.97
2023-05-14T03:45:30.504Z,69.04
2023-05-14T03:47:58.439Z,69.33
2023-05-14T03:50:26.463Z,69.16
2023-05-14T03:52:55.085Z,68.91
2023-05-14T03:55:24.502Z,69.37
2023-05-14T03:57:52.462Z,69.35
2023-05-14T04:00:21.386Z,69.29
2023-05-14T04:02:49.700Z,69.37
2023-05-14T04:05:17.784Z,69.35
2023-05-14T04:07:46.241Z,69.21
2023-05-14T04:10:14.686Z,69.44
2023-05-14T04:12:43.895Z,69.55
2023-05-14T04:15:12.556Z,69.46
2023-05-14T04:17:40.465Z,69.24
2023-05-14T04:20:09.751Z,69.41
2023-05-14T04:22:37.680Z,69.31
2023-05-14T04:25:06.219Z,69.31
2023-05-14T04:27:34.655Z,69.07
2023-05-14T04:30:04.541Z,69.09
2023-05-14T04:32:32.384Z,69.09
2023-05-14T04:35:00.271Z,68.87
2023-05-14T04:37:28.184Z,69.08
2023-05-14T04:39:56.287Z,69.09
2023-05-14T04:42:24.185Z,68.69
2023-05-14T04:44:52.326Z,68.78
2023-05-14T04:47:22.305Z,68.81
2023-05-14T04:49:50.214Z,68.33
2023-05-14T04:52:18.130Z,68.34
2023-05-14T04:54:46.198Z,67.89
2023-05-14T04:57:14.341Z,67.81
2023-05-14T04:59:42.241Z,67.55
2023-05-14T05:02:10.315Z,67.11
2023-05-14T05:04:39.833Z,67.73
2023-05-14T05:07:07.727Z,67.13
2023-05-14T05:09:35.753Z,66.83
2023-05-14T05:12:03.587Z,66.73
2023-05-14T05:14:31.419Z,66.54
2023-05-14T05:16:59.637Z,66.61
2023-05-14T05:19:39.555Z,66.19
2023-05-14T05:22:12.987Z,65.95
2023-05-14T05:24:40.862Z,65.89
2023-05-14T05:27:08.892Z,65.38
2023-05-14T05:29:36.879Z,65.28
2023-05-14T05:32:05.168Z,65.32
2023-05-14T05:34:33.129Z,64.86
2023-05-14T05:37:01.018Z,64.74
2023-05-14T05:39:35.299Z,64.98
2023-05-14T05:42:03.985Z,64.38
2023-05-14T05:44:32.145Z,64.34
2023-05-14T05:47:00.199Z,64.21
2023-05-14T05:49:28.279Z,63.94
2023-05-14T05:51:56.131Z,63.33
2023-05-14T05:54:29.208Z,63.44
2023-05-14T05:56:58.511Z,63.13
2023-05-14T05:59:26.353Z,62.81
2023-05-14T06:01:56.591Z,62.87
2023-05-14T06:04:24.612Z,62.27
2023-05-14T06:06:52.634Z,62.01
2023-05-14T06:09:20.901Z,61.63
2023-05-14T06:11:51.650Z,61.10
2023-05-14T06:14:21.086Z,60.57
2023-05-14T06:16:49.020Z,60.28
2023-05-14T06:19:17.169Z,60.06
2023-05-14T06:21:45.295Z,59.48
2023-05-14T06:24:13.376Z,59.17
2023-05-14T06:26:41.402Z,58.99
2023-05-14T06:29:09.537Z,58.53
2023-05-14T06:31:38.815Z,57.88
2023-05-14T06:34:08.921Z,57.59
2023-05-14T06:36:37.049Z,57.09
2023-05-14T06:39:05.234Z,56.60
2023-05-14T06:41:33.208Z,56.15
2023-05-14T06:44:01.018Z,55.80
2023-05-14T06:46:28.846Z,55.30
2023-05-14T06:48:59.547Z,54.99
2023-05-14T06:51:27.782Z,54.79
2023-05-14T06:53:56.134Z,54.29
2023-05-14T06:56:24.231Z,53.94
2023-05-14T06:58:52.062Z,53.62
2023-05-14T07:01:19.955Z,53.26
2023-05-14T07:03:47.953Z,53.03
2023-05-14T07:06:18.585Z,52.33
2023-05-14T07:08:47.698Z,52.10
2023-05-14T07:11:17.316Z,51.90
2023-05-14T07:13:48.120Z,51.32
2023-05-14T07:16:16.099Z,50.98
2023-05-14T07:18:53.175Z,50.75
2023-05-14T07:21:22.484Z,51.02
2023-05-14T07:23:51.386Z,50.67
2023-05-14T07:26:21.608Z,50.10
2023-05-14T07:28:49.748Z,47.84
2023-05-14T07:31:17.917Z,47.27
2023-05-14T07:33:46.104Z,46.34
2023-05-14T07:36:14.268Z,44.74
2023-05-14T07:38:43.547Z,43.33
2023-05-14T07:41:12.273Z,42.87
2023-05-14T07:43:40.578Z,41.33
2023-05-14T07:46:08.488Z,39.83
2023-05-14T07:48:36.414Z,38.70
2023-05-14T07:51:04.410Z,38.15
2023-05-14T07:53:32.287Z,37.53
2023-05-14T07:56:01.523Z,36.95
2023-05-14T07:58:30.263Z,36.36
2023-05-14T08:00:58.093Z,35.58
2023-05-14T08:03:25.978Z,35.10
2023-05-14T08:05:54.000Z,34.75
2023-05-14T08:08:21.829Z,34.40
2023-05-14T08:10:49.746Z,34.34
2023-05-14T08:13:18.985Z,33.76
2023-05-14T08:15:48.155Z,33.42
2023-05-14T08:18:16.214Z,33.11
2023-05-14T08:20:44.037Z,32.60
2023-05-14T08:23:11.910Z,31.53
2023-05-14T08:25:39.864Z,31.62
2023-05-14T08:28:08.896Z,30.63
2023-05-14T08:30:38.295Z,29.96
2023-05-14T08:33:06.352Z,29.65
2023-05-14T08:35:34.369Z,29.47
2023-05-14T08:38:02.330Z,29.07
2023-05-14T08:40:30.487Z,28.17
2023-05-14T08:42:58.585Z,28.41
2023-05-14T08:45:34.193Z,28.67
2023-05-14T08:48:09.394Z,28.78
2023-05-14T08:50:37.662Z,28.45
2023-05-14T08:53:05.611Z,28.09
2023-05-14T08:55:34.213Z,27.68
2023-05-14T08:58:02.499Z,27.05
2023-05-14T09:00:30.900Z,27.14
2023-05-14T09:03:00.220Z,26.51
2023-05-14T09:05:29.592Z,26.34
2023-05-14T09:07:57.681Z,26.33
2023-05-14T09:10:26.309Z,25.98
2023-05-14T09:12:54.578Z,26.09
2023-05-14T09:15:22.382Z,25.86
2023-05-14T09:17:50.449Z,25.73
2023-05-14T09:20:18.504Z,25.27
2023-05-14T09:22:47.783Z,25.75
2023-05-14T09:25:15.614Z,26.73
2023-05-14T09:27:43.511Z,26.08
2023-05-14T09:30:12.993Z,25.57
2023-05-14T09:32:44.060Z,25.44
2023-05-14T09:35:15.021Z,25.64
2023-05-14T09:37:46.383Z,25.69
2023-05-14T09:40:18.978Z,25.09
2023-05-14T09:42:48.229Z,25.39
2023-05-14T09:45:17.114Z,26.13
2023-05-14T09:47:46.098Z,25.77
2023-05-14T09:50:14.395Z,25.64
2023-05-14T09:52:43.703Z,25.20
2023-05-14T09:55:15.711Z,24.85
2023-05-14T09:57:45.302Z,25.19
2023-05-14T10:00:15.813Z,25.46
2023-05-14T10:02:46.983Z,25.23
2023-05-14T10:05:16.793Z,24.87
2023-05-14T10:07:50.668Z,25.09
2023-05-14T10:10:21.673Z,24.84
2023-05-14T10:12:56.186Z,24.73
2023-05-14T10:15:31.494Z,24.17
2023-05-14T10:18:04.678Z,24.46
2023-05-14T10:20:33.324Z,23.45
2023-05-14T10:23:02.131Z,23.45
2023-05-14T10:25:32.091Z,22.43
2023-05-14T10:28:02.112Z,21.02
2023-05-14T10:30:31.387Z,21.04
2023-05-14T10:33:10.379Z,21.14
2023-05-14T10:36:01.730Z,21.28
2023-05-14T10:38:30.452Z,21.82
2023-05-14T10:41:01.077Z,22.98
2023-05-14T10:43:31.851Z,24.27
2023-05-14T10:46:01.695Z,24.20
2023-05-14T10:48:30.067Z,24.28
2023-05-14T10:50:58.833Z,24.49
2023-05-14T10:53:37.995Z,24.05
2023-05-14T10:56:07.546Z,24.73
2023-05-14T10:58:39.202Z,24.57
2023-05-14T11:01:08.528Z,24.81
2023-05-14T11:03:42.150Z,24.76
2023-05-14T11:06:11.302Z,25.05
2023-05-14T11:08:39.832Z,24.73
2023-05-14T11:11:08.172Z,24.28
2023-05-14T11:13:36.550Z,24.06
2023-05-14T11:18:38.897Z,24.22
2023-05-14T11:21:07.075Z,24.19
2023-05-14T11:23:34.974Z,23.66
2023-05-14T11:26:03.265Z,23.19
2023-05-14T11:28:31.362Z,23.36
2023-05-14T11:30:59.219Z,23.30
2023-05-14T11:33:29.223Z,23.97
2023-05-14T11:35:57.200Z,24.53
2023-05-14T11:38:25.502Z,24.10
2023-05-14T11:40:54.388Z,24.09
2023-05-14T11:43:23.747Z,23.42
2023-05-14T11:45:52.690Z,23.34
2023-05-14T11:48:20.952Z,23.72
2023-05-14T11:50:51.524Z,23.31
2023-05-14T11:53:20.382Z,22.98
2023-05-14T11:55:49.913Z,23.39
2023-05-14T11:58:19.519Z,23.19
2023-05-14T12:00:47.655Z,22.72
2023-05-14T12:03:15.828Z,21.74
2023-05-14T12:05:58.145Z,22.02
2023-05-14T12:08:28.545Z,21.66
2023-05-14T12:10:56.994Z,21.93
2023-05-14T12:13:27.712Z,21.10
2023-05-14T12:15:57.093Z,20.34
2023-05-14T12:18:26.450Z,19.80
2023-05-14T12:20:54.454Z,19.85
2023-05-14T12:23:28.012Z,20.21
2023-05-14T12:25:56.021Z,20.22
2023-05-14T12:28:24.745Z,19.46
2023-05-14T12:30:58.287Z,19.33
2023-05-14T12:33:27.360Z,19.53
2023-05-14T12:35:58.913Z,19.27
2023-05-14T12:38:30.065Z,19.95
2023-05-14T12:40:57.869Z,19.56
2023-05-14T12:43:30.003Z,19.35
2023-05-14T12:45:57.978Z,19.66
2023-05-14T12:48:26.177Z,19.31
2023-05-14T12:50:54.045Z,19.31
2023-05-14T12:53:22.063Z,19.25
2023-05-14T12:55:51.479Z,19.18
2023-05-14T12:58:19.351Z,19.26
2023-05-14T13:00:47.379Z,19.10
2023-05-14T13:03:15.333Z,19.10
2023-05-14T13:05:43.256Z,19.13
2023-05-14T13:08:11.367Z,18.78
2023-05-14T13:10:39.194Z,19.29
2023-05-14T13:13:08.475Z,18.71
2023-05-14T13:15:37.441Z,18.96
2023-05-14T13:18:05.855Z,18.93
2023-05-14T13:20:34.537Z,18.55
2023-05-14T13:23:03.089Z,18.47
2023-05-14T13:25:30.981Z,18.62
2023-05-14T13:27:58.840Z,18.04
2023-05-14T13:30:28.734Z,19.04
2023-05-14T13:32:56.601Z,18.63
2023-05-14T13:35:24.774Z,18.93
2023-05-14T13:37:53.320Z,19.46
2023-05-14T13:40:21.328Z,19.25
2023-05-14T13:42:50.660Z,19.00
2023-05-14T13:45:18.694Z,18.78
2023-05-14T13:47:49.411Z,18.97
2023-05-14T13:50:17.537Z,18.80
2023-05-14T13:52:45.549Z,18.66
2023-05-14T13:55:13.530Z,18.92
2023-05-14T13:57:43.085Z,18.32
2023-05-14T14:00:11.809Z,18.05
2023-05-14T14:02:39.822Z,17.59
2023-05-14T14:05:10.446Z,17.33
2023-05-14T14:07:38.954Z,17.60
2023-05-14T14:10:08.156Z,17.58
2023-05-14T14:12:36.816Z,17.29
2023-05-14T14:15:05.300Z,17.19
2023-05-14T14:17:34.256Z,17.13
2023-05-14T14:20:02.291Z,17.21
2023-05-14T14:22:31.881Z,17.29
2023-05-14T14:24:59.774Z,17.34
2023-05-14T14:27:27.802Z,17.17
2023-05-14T14:29:56.885Z,17.28
2023-05-14T14:32:25.014Z,17.68
2023-05-14T14:34:53.160Z,17.67
2023-05-14T14:37:23.017Z,17.36
2023-05-14T14:39:52.441Z,17.67
2023-05-14T14:42:20.476Z,17.43
2023-05-14T14:44:48.401Z,18.54
2023-05-14T14:47:18.610Z,17.75
2023-05-14T14:49:46.651Z,18.16
2023-05-14T14:52:15.643Z,17.67
2023-05-14T14:54:43.676Z,17.47
2023-05-14T14:57:13.311Z,16.97
2023-05-14T14:59:41.433Z,17.19
2023-05-14T15:02:11.002Z,16.68
2023-05-14T15:04:39.178Z,16.70
2023-05-14T15:07:07.400Z,17.27
2023-05-14T15:09:35.362Z,17.58
2023-05-14T15:12:03.530Z,17.51
2023-05-14T15:14:33.552Z,17.82
2023-05-14T15:17:01.924Z,17.75
2023-05-14T15:19:31.138Z,17.33
2023-05-14T15:21:59.254Z,17.22
2023-05-14T15:24:27.410Z,17.31
2023-05-14T15:26:55.833Z,17.46
2023-05-14T15:29:23.852Z,17.41
2023-05-14T15:31:53.390Z,17.59
2023-05-14T15:34:23.718Z,17.30
2023-05-14T15:36:52.204Z,17.31
2023-05-14T15:39:21.609Z,17.16
2023-05-14T15:41:49.707Z,17.00
2023-05-14T15:44:17.850Z,16.41
2023-05-14T15:46:45.964Z,16.64
2023-05-14T15:49:15.544Z,16.06
2023-05-14T15:51:43.533Z,16.36
2023-05-14T15:54:14.603Z,16.89
2023-05-14T15:56:42.593Z,17.34
2023-05-14T15:59:10.488Z,16.92
2023-05-14T16:01:38.431Z,17.13
2023-05-14T16:04:06.488Z,17.05
2023-05-14T16:06:36.357Z,16.79
2023-05-14T16:09:05.225Z,16.79
2023-05-14T16:11:33.139Z,17.05
2023-05-14T16:14:01.067Z,16.80
2023-05-14T16:16:29.053Z,17.15
2023-05-14T16:18:57.217Z,17.48
2023-05-14T16:21:25.269Z,17.33
2023-05-14T16:23:54.514Z,17.09
2023-05-14T16:26:22.869Z,17.31
2023-05-14T16:28:50.745Z,17.28
2023-05-14T16:31:18.886Z,17.59
2023-05-14T16:33:46.859Z,17.50
2023-05-14T16:36:14.709Z,17.39
2023-05-14T16:39:05.405Z,17.21
2023-05-14T16:41:32.181Z,17.29
2023-05-14T16:44:00.029Z,17.31
2023-05-14T16:46:29.389Z,17.90
2023-05-14T16:48:57.723Z,18.33
2023-05-14T16:51:25.696Z,18.03
2023-05-14T16:53:55.502Z,18.32
2023-05-14T16:56:23.917Z,18.64
2023-05-14T16:58:53.161Z,18.71
2023-05-14T17:01:21.068Z,19.09
2023-05-14T17:03:49.084Z,19.22
2023-05-14T17:06:17.090Z,19.49
2023-05-14T17:08:44.966Z,19.81
2023-05-14T17:11:12.946Z,20.39
2023-05-14T17:13:40.853Z,20.90
2023-05-14T17:16:10.192Z,21.24
2023-05-14T17:18:38.355Z,21.75
2023-05-14T17:21:07.563Z,22.40
2023-05-14T17:23:35.656Z,22.66
2023-05-14T17:26:03.901Z,22.79
2023-05-14T17:28:32.051Z,22.91
2023-05-14T17:30:59.927Z,23.48
2023-05-14T17:33:29.624Z,23.55
2023-05-14T17:35:57.621Z,23.83
2023-05-14T17:38:25.862Z,23.88
2023-05-14T17:40:54.360Z,24.32
2023-05-14T17:43:22.292Z,24.51
2023-05-14T17:45:54.457Z,24.51
2023-05-14T17:48:23.065Z,24.73
2023-05-14T17:50:52.457Z,25.07
2023-05-14T17:53:20.471Z,25.15
2023-05-14T17:55:48.499Z,25.17
2023-05-14T17:58:16.728Z,25.43
2023-05-14T18:00:44.850Z,25.62
2023-05-14T18:03:14.301Z,25.58
2023-05-14T18:05:44.776Z,25.76
2023-05-14T18:08:14.621Z,25.92
2023-05-14T18:10:42.496Z,26.00
2023-05-14T18:13:10.423Z,26.10
2023-05-14T18:15:38.792Z,26.16
2023-05-14T18:18:07.287Z,26.07
2023-05-14T18:20:35.650Z,26.37
2023-05-14T18:23:03.884Z,26.64
2023-05-14T18:25:33.297Z,26.80
2023-05-14T18:28:01.258Z,26.98
2023-05-14T18:30:29.157Z,27.21
2023-05-14T18:32:57.012Z,27.34
2023-05-14T18:35:25.053Z,27.56
2023-05-14T18:37:53.529Z,27.62
2023-05-14T18:40:21.630Z,27.90
2023-05-14T18:42:50.910Z,28.17
2023-05-14T18:45:22.370Z,28.25
2023-05-14T18:47:50.900Z,28.36
2023-05-14T18:50:18.957Z,28.50
2023-05-14T18:52:46.875Z,28.62
2023-05-14T18:55:14.837Z,28.63
2023-05-14T18:57:42.849Z,28.90
2023-05-14T19:00:13.824Z,28.99
2023-05-14T19:02:41.768Z,29.07
2023-05-14T19:05:09.974Z,29.33
2023-05-14T19:07:38.220Z,29.38
2023-05-14T19:10:07.475Z,29.75
2023-05-14T19:12:37.578Z,29.79
2023-05-14T19:15:06.552Z,29.91
2023-05-14T19:17:36.790Z,30.03
2023-05-14T19:20:05.915Z,30.09
2023-05-14T19:22:33.855Z,30.37
2023-05-14T19:25:02.040Z,30.35
2023-05-14T19:27:31.253Z,30.52
2023-05-14T19:29:59.140Z,30.59
2023-05-14T19:32:27.007Z,30.64
2023-05-14T19:34:58.943Z,30.79
2023-05-14T19:37:27.046Z,30.84
2023-05-14T19:39:54.888Z,30.78
2023-05-14T19:42:22.692Z,31.07
2023-05-14T19:44:51.311Z,31.19
2023-05-14T19:47:20.281Z,31.19
2023-05-14T19:49:48.135Z,31.18
2023-05-14T19:52:17.648Z,31.60
2023-05-14T19:54:45.506Z,31.50
2023-05-14T19:57:13.404Z,31.53
2023-05-14T19:59:41.488Z,31.85
2023-05-14T20:02:15.653Z,31.63
2023-05-14T20:04:45.572Z,31.88
2023-05-14T20:07:14.007Z,32.08
2023-05-14T20:09:43.530Z,32.38
2023-05-14T20:12:12.944Z,32.40
2023-05-14T20:14:41.671Z,32.77
2023-05-14T20:17:10.337Z,32.82
2023-05-14T20:19:38.412Z,32.83
2023-05-14T20:22:06.506Z,33.12
2023-05-14T20:24:34.324Z,33.06
2023-05-14T20:27:03.728Z,33.31
2023-05-14T20:29:31.639Z,33.36
2023-05-14T20:31:59.481Z,33.48
2023-05-14T20:34:27.389Z,33.53
2023-05-14T20:36:55.220Z,33.50
2023-05-14T20:39:23.320Z,33.61
2023-05-14T20:41:51.304Z,33.76
2023-05-14T20:44:20.824Z,33.86
2023-05-14T20:46:49.053Z,33.82
2023-05-14T20:49:17.098Z,33.94
2023-05-14T20:51:45.024Z,33.95
2023-05-14T20:54:12.891Z,34.20
2023-05-14T20:56:40.808Z,34.22
2023-05-14T20:59:08.696Z,34.33
2023-05-14T21:01:37.979Z,34.60
2023-05-14T21:04:06.240Z,34.52
2023-05-14T21:06:34.206Z,34.67
2023-05-14T21:09:02.050Z,34.61
2023-05-14T21:11:29.955Z,34.88
2023-05-14T21:13:58.756Z,35.01
2023-05-14T21:16:26.678Z,35.19
2023-05-14T21:18:56.245Z,35.34
2023-05-14T21:21:24.428Z,35.45
2023-05-14T21:23:52.268Z,35.55
2023-05-14T21:26:23.571Z,35.85
2023-05-14T21:28:51.402Z,35.87
2023-05-14T21:31:20.707Z,35.79
2023-05-14T21:33:48.725Z,35.96
2023-05-14T21:36:18.307Z,36.22
2023-05-14T21:38:46.113Z,36.24
2023-05-14T21:41:14.479Z,36.31
2023-05-14T21:43:43.814Z,36.47
2023-05-14T21:46:11.793Z,36.67
2023-05-14T21:48:40.092Z,36.76
2023-05-14T21:51:08.002Z,36.73
2023-05-14T21:53:37.183Z,36.79
2023-05-14T21:56:06.119Z,36.84
2023-05-14T21:58:33.946Z,37.01
2023-05-14T22:01:01.777Z,36.94
2023-05-14T22:03:30.048Z,37.13
2023-05-14T22:05:58.617Z,37.33
2023-05-14T22:08:27.272Z,37.40
2023-05-14T22:10:56.700Z,37.65
2023-05-14T22:13:24.739Z,37.53
2023-05-14T22:16:01.411Z,37.73
2023-05-14T22:18:37.204Z,37.71
2023-05-14T22:21:05.670Z,37.91
2023-05-14T22:23:33.512Z,37.98
2023-05-14T22:26:02.984Z,38.12
2023-05-14T22:28:30.920Z,38.32
2023-05-14T22:30:59.756Z,38.53
2023-05-14T22:33:27.920Z,38.64
2023-05-14T22:35:55.780Z,38.69
2023-05-14T22:38:23.599Z,39.07
2023-05-14T22:40:51.965Z,39.12
2023-05-14T22:43:21.213Z,39.31
2023-05-14T22:45:49.040Z,39.38
2023-05-14T22:48:17.055Z,39.73
2023-05-14T22:50:44.954Z,39.65
2023-05-14T22:53:13.510Z,39.94
2023-05-14T22:55:41.498Z,40.09
2023-05-14T22:58:09.346Z,40.12
2023-05-14T23:00:38.669Z,40.20
2023-05-14T23:03:07.460Z,40.25
2023-05-14T23:05:36.252Z,40.32
2023-05-14T23:08:04.150Z,40.76
2023-05-14T23:10:33.354Z,40.85
2023-05-14T23:13:01.210Z,40.83
2023-05-14T23:15:29.101Z,40.87
2023-05-14T23:17:59.825Z,41.10
2023-05-14T23:20:27.735Z,41.35
2023-05-14T23:22:55.553Z,41.46
2023-05-14T23:25:23.587Z,41.37
2023-05-14T23:27:51.555Z,41.39
2023-05-14T23:30:19.633Z,41.31
2023-05-14T23:32:47.625Z,41.54
2023-05-14T23:35:17.124Z,41.63
2023-05-14T23:37:47.424Z,41.72
2023-05-14T23:40:15.811Z,41.87
2023-05-14T23:42:44.643Z,41.63
2023-05-14T23:45:14.112Z,41.84
2023-05-14T23:47:42.409Z,42.15
2023-05-14T23:50:10.677Z,42.14
2023-05-14T23:52:39.997Z,42.18
2023-05-14T23:55:08.551Z,42.27
2023-05-14T23:57:36.923Z,42.70
